sensor_id;sensor_type;location;lat;lon;timestamp;P1;durP1;ratioP1;P2;durP2;ratioP2
45342;SDS011;31077;50.872;4.352;2023-02-26T00:02:15;4.20;;;2.33;;
45342;SDS011;31077;50.872;4.352;2023-02-26T00:04:41;5.75;;;2.35;;
45342;SDS011;31077;50.872;4.352;2023-02-26T00:07:07;7.03;;;2.45;;
45342;SDS011;31077;50.872;4.352;2023-02-26T00:09:33;3.38;;;2.33;;
45342;SDS011;31077;50.872;4.352;2023-02-26T00:11:58;4.88;;;2.40;;
45342;SDS011;31077;50.872;4.352;2023-02-26T00:14:25;5.32;;;2.35;;
45342;SDS011;31077;50.872;4.352;2023-02-26T00:17:03;5.57;;;2.22;;
45342;SDS011;31077;50.872;4.352;2023-02-26T00:19:49;4.38;;;2.05;;
45342;SDS011;31077;50.872;4.352;2023-02-26T00:22:15;6.43;;;2.47;;
45342;SDS011;31077;50.872;4.352;2023-02-26T00:24:41;5.15;;;2.55;;
45342;SDS011;31077;50.872;4.352;2023-02-26T00:27:08;7.78;;;1.92;;
45342;SDS011;31077;50.872;4.352;2023-02-26T00:29:35;4.43;;;2.40;;
45342;SDS011;31077;50.872;4.352;2023-02-26T00:32:01;4.00;;;2.10;;
45342;SDS011;31077;50.872;4.352;2023-02-26T00:34:27;5.82;;;2.35;;
45342;SDS011;31077;50.872;4.352;2023-02-26T00:39:53;4.05;;;2.00;;
45342;SDS011;31077;50.872;4.352;2023-02-26T00:42:25;5.50;;;2.08;;
45342;SDS011;31077;50.872;4.352;2023-02-26T00:44:51;5.03;;;2.00;;
45342;SDS011;31077;50.872;4.352;2023-02-26T00:49:56;4.10;;;2.07;;
45342;SDS011;31077;50.872;4.352;2023-02-26T00:55:16;4.85;;;2.33;;
45342;SDS011;31077;50.872;4.352;2023-02-26T00:57:42;6.10;;;2.58;;
45342;SDS011;31077;50.872;4.352;2023-02-26T01:00:08;4.68;;;2.28;;
45342;SDS011;31077;50.872;4.352;2023-02-26T01:02:35;6.68;;;1.80;;
45342;SDS011;31077;50.872;4.352;2023-02-26T01:05:02;6.00;;;1.90;;
45342;SDS011;31077;50.872;4.352;2023-02-26T01:07:29;4.13;;;2.22;;
45342;SDS011;31077;50.872;4.352;2023-02-26T01:10:03;5.60;;;1.80;;
45342;SDS011;31077;50.872;4.352;2023-02-26T01:12:29;4.65;;;2.40;;
45342;SDS011;31077;50.872;4.352;2023-02-26T01:14:55;4.38;;;1.92;;
45342;SDS011;31077;50.872;4.352;2023-02-26T01:19:53;3.85;;;2.38;;
45342;SDS011;31077;50.872;4.352;2023-02-26T01:22:29;6.88;;;2.33;;
45342;SDS011;31077;50.872;4.352;2023-02-26T01:25:10;4.15;;;1.98;;
45342;SDS011;31077;50.872;4.352;2023-02-26T01:27:38;4.80;;;2.10;;
45342;SDS011;31077;50.872;4.352;2023-02-26T01:30:06;6.22;;;1.95;;
45342;SDS011;31077;50.872;4.352;2023-02-26T01:32:48;4.22;;;1.90;;
45342;SDS011;31077;50.872;4.352;2023-02-26T01:38:44;8.60;;;2.45;;
45342;SDS011;31077;50.872;4.352;2023-02-26T01:46:24;9.25;;;2.40;;
45342;SDS011;31077;50.872;4.352;2023-02-26T01:49:00;6.05;;;2.13;;
45342;SDS011;31077;50.872;4.352;2023-02-26T01:51:40;4.20;;;2.30;;
45342;SDS011;31077;50.872;4.352;2023-02-26T01:54:07;4.32;;;2.08;;
45342;SDS011;31077;50.872;4.352;2023-02-26T01:56:33;3.45;;;1.80;;
45342;SDS011;31077;50.872;4.352;2023-02-26T01:58:59;4.25;;;1.90;;
45342;SDS011;31077;50.872;4.352;2023-02-26T02:01:30;4.80;;;2.10;;
45342;SDS011;31077;50.872;4.352;2023-02-26T02:03:56;4.47;;;2.50;;
45342;SDS011;31077;50.872;4.352;2023-02-26T02:06:23;9.18;;;2.10;;
45342;SDS011;31077;50.872;4.352;2023-02-26T02:08:51;5.18;;;2.00;;
45342;SDS011;31077;50.872;4.352;2023-02-26T02:11:17;16.83;;;2.00;;
45342;SDS011;31077;50.872;4.352;2023-02-26T02:13:55;5.20;;;2.20;;
45342;SDS011;31077;50.872;4.352;2023-02-26T02:16:47;3.45;;;1.90;;
45342;SDS011;31077;50.872;4.352;2023-02-26T02:32:48;4.25;;;1.83;;
45342;SDS011;31077;50.872;4.352;2023-02-26T02:35:21;4.00;;;2.00;;
45342;SDS011;31077;50.872;4.352;2023-02-26T02:40:53;3.40;;;1.55;;
45342;SDS011;31077;50.872;4.352;2023-02-26T02:43:27;5.40;;;1.92;;
45342;SDS011;31077;50.872;4.352;2023-02-26T02:45:59;3.65;;;1.50;;
45342;SDS011;31077;50.872;4.352;2023-02-26T02:48:34;3.13;;;1.77;;
45342;SDS011;31077;50.872;4.352;2023-02-26T02:53:56;5.10;;;1.60;;
45342;SDS011;31077;50.872;4.352;2023-02-26T02:59:34;3.15;;;1.80;;
45342;SDS011;31077;50.872;4.352;2023-02-26T03:02:10;2.85;;;1.60;;
45342;SDS011;31077;50.872;4.352;2023-02-26T03:04:42;4.22;;;1.90;;
45342;SDS011;31077;50.872;4.352;2023-02-26T03:07:09;4.75;;;1.58;;
45342;SDS011;31077;50.872;4.352;2023-02-26T03:09:35;2.08;;;1.17;;
45342;SDS011;31077;50.872;4.352;2023-02-26T03:12:01;3.33;;;1.60;;
45342;SDS011;31077;50.872;4.352;2023-02-26T03:14:27;4.57;;;1.75;;
45342;SDS011;31077;50.872;4.352;2023-02-26T03:28:22;2.78;;;1.50;;
45342;SDS011;31077;50.872;4.352;2023-02-26T03:36:17;3.00;;;1.42;;
45342;SDS011;31077;50.872;4.352;2023-02-26T03:38:50;3.58;;;1.38;;
45342;SDS011;31077;50.872;4.352;2023-02-26T03:41:42;3.28;;;1.42;;
45342;SDS011;31077;50.872;4.352;2023-02-26T03:44:16;3.55;;;1.60;;
45342;SDS011;31077;50.872;4.352;2023-02-26T03:46:50;3.60;;;1.60;;
45342;SDS011;31077;50.872;4.352;2023-02-26T03:49:21;4.78;;;1.77;;
45342;SDS011;31077;50.872;4.352;2023-02-26T03:51:51;4.32;;;1.42;;
45342;SDS011;31077;50.872;4.352;2023-02-26T03:54:20;3.03;;;1.58;;
45342;SDS011;31077;50.872;4.352;2023-02-26T03:56:49;3.22;;;1.55;;
45342;SDS011;31077;50.872;4.352;2023-02-26T03:59:16;3.47;;;1.75;;
45342;SDS011;31077;50.872;4.352;2023-02-26T04:04:32;2.50;;;1.13;;
45342;SDS011;31077;50.872;4.352;2023-02-26T04:07:06;2.83;;;1.40;;
45342;SDS011;31077;50.872;4.352;2023-02-26T04:09:35;4.13;;;1.42;;
45342;SDS011;31077;50.872;4.352;2023-02-26T04:12:01;3.53;;;1.50;;
45342;SDS011;31077;50.872;4.352;2023-02-26T04:14:28;3.90;;;1.90;;
45342;SDS011;31077;50.872;4.352;2023-02-26T04:16:53;4.88;;;1.60;;
45342;SDS011;31077;50.872;4.352;2023-02-26T04:19:19;2.97;;;1.40;;
45342;SDS011;31077;50.872;4.352;2023-02-26T04:21:45;1.95;;;1.30;;
45342;SDS011;31077;50.872;4.352;2023-02-26T04:24:11;3.05;;;1.30;;
45342;SDS011;31077;50.872;4.352;2023-02-26T04:26:37;3.72;;;1.27;;
45342;SDS011;31077;50.872;4.352;2023-02-26T04:29:02;3.08;;;1.55;;
45342;SDS011;31077;50.872;4.352;2023-02-26T04:31:28;2.45;;;1.40;;
45342;SDS011;31077;50.872;4.352;2023-02-26T04:33:54;4.13;;;1.65;;
45342;SDS011;31077;50.872;4.352;2023-02-26T04:36:20;4.90;;;1.30;;
45342;SDS011;31077;50.872;4.352;2023-02-26T04:38:46;2.22;;;1.13;;
45342;SDS011;31077;50.872;4.352;2023-02-26T04:41:12;3.30;;;1.30;;
45342;SDS011;31077;50.872;4.352;2023-02-26T04:43:37;4.50;;;1.20;;
45342;SDS011;31077;50.872;4.352;2023-02-26T04:46:03;2.88;;;1.50;;
45342;SDS011;31077;50.872;4.352;2023-02-26T04:48:29;2.80;;;1.35;;
45342;SDS011;31077;50.872;4.352;2023-02-26T04:50:55;3.70;;;1.25;;
45342;SDS011;31077;50.872;4.352;2023-02-26T04:53:21;2.20;;;1.13;;
45342;SDS011;31077;50.872;4.352;2023-02-26T04:55:47;2.67;;;1.20;;
45342;SDS011;31077;50.872;4.352;2023-02-26T04:58:13;2.38;;;1.42;;
45342;SDS011;31077;50.872;4.352;2023-02-26T05:00:39;2.55;;;1.23;;
45342;SDS011;31077;50.872;4.352;2023-02-26T05:03:05;4.25;;;1.20;;
45342;SDS011;31077;50.872;4.352;2023-02-26T05:05:31;2.25;;;1.38;;
45342;SDS011;31077;50.872;4.352;2023-02-26T05:07:57;2.95;;;1.17;;
45342;SDS011;31077;50.872;4.352;2023-02-26T05:10:23;3.05;;;1.10;;
45342;SDS011;31077;50.872;4.352;2023-02-26T05:12:49;2.40;;;1.10;;
45342;SDS011;31077;50.872;4.352;2023-02-26T05:15:15;2.97;;;1.08;;
45342;SDS011;31077;50.872;4.352;2023-02-26T05:17:41;4.28;;;0.95;;
45342;SDS011;31077;50.872;4.352;2023-02-26T05:20:07;2.40;;;1.30;;
45342;SDS011;31077;50.872;4.352;2023-02-26T05:22:36;2.78;;;1.13;;
45342;SDS011;31077;50.872;4.352;2023-02-26T05:25:03;2.95;;;1.17;;
45342;SDS011;31077;50.872;4.352;2023-02-26T05:27:31;2.15;;;1.20;;
45342;SDS011;31077;50.872;4.352;2023-02-26T05:29:58;2.70;;;1.33;;
45342;SDS011;31077;50.872;4.352;2023-02-26T05:32:24;2.60;;;1.13;;
45342;SDS011;31077;50.872;4.352;2023-02-26T05:34:50;3.00;;;1.48;;
45342;SDS011;31077;50.872;4.352;2023-02-26T05:37:15;1.70;;;1.20;;
45342;SDS011;31077;50.872;4.352;2023-02-26T05:39:41;2.63;;;1.17;;
45342;SDS011;31077;50.872;4.352;2023-02-26T05:42:07;1.98;;;1.10;;
45342;SDS011;31077;50.872;4.352;2023-02-26T05:44:33;3.60;;;1.23;;
45342;SDS011;31077;50.872;4.352;2023-02-26T05:47:01;6.40;;;1.45;;
45342;SDS011;31077;50.872;4.352;2023-02-26T05:49:27;4.55;;;1.40;;
45342;SDS011;31077;50.872;4.352;2023-02-26T05:51:53;9.63;;;1.73;;
45342;SDS011;31077;50.872;4.352;2023-02-26T05:54:19;2.28;;;1.05;;
45342;SDS011;31077;50.872;4.352;2023-02-26T05:56:45;1.58;;;0.90;;
45342;SDS011;31077;50.872;4.352;2023-02-26T05:59:11;2.03;;;1.20;;
45342;SDS011;31077;50.872;4.352;2023-02-26T06:01:37;3.78;;;1.15;;
45342;SDS011;31077;50.872;4.352;2023-02-26T06:04:03;3.22;;;1.00;;
45342;SDS011;31077;50.872;4.352;2023-02-26T06:06:30;1.83;;;0.90;;
45342;SDS011;31077;50.872;4.352;2023-02-26T06:08:56;3.28;;;1.10;;
45342;SDS011;31077;50.872;4.352;2023-02-26T06:11:22;4.18;;;1.42;;
45342;SDS011;31077;50.872;4.352;2023-02-26T06:13:48;2.70;;;1.05;;
45342;SDS011;31077;50.872;4.352;2023-02-26T06:16:14;3.33;;;1.30;;
45342;SDS011;31077;50.872;4.352;2023-02-26T06:18:40;3.53;;;1.25;;
45342;SDS011;31077;50.872;4.352;2023-02-26T06:21:06;1.45;;;0.90;;
45342;SDS011;31077;50.872;4.352;2023-02-26T06:23:31;3.60;;;1.30;;
45342;SDS011;31077;50.872;4.352;2023-02-26T06:25:57;2.10;;;1.10;;
45342;SDS011;31077;50.872;4.352;2023-02-26T06:28:24;2.55;;;1.50;;
45342;SDS011;31077;50.872;4.352;2023-02-26T06:30:53;2.28;;;1.25;;
45342;SDS011;31077;50.872;4.352;2023-02-26T06:33:19;3.10;;;1.20;;
45342;SDS011;31077;50.872;4.352;2023-02-26T06:35:45;2.85;;;1.40;;
45342;SDS011;31077;50.872;4.352;2023-02-26T06:38:11;3.60;;;1.33;;
45342;SDS011;31077;50.872;4.352;2023-02-26T06:40:38;3.47;;;1.20;;
45342;SDS011;31077;50.872;4.352;2023-02-26T06:43:04;2.20;;;1.30;;
45342;SDS011;31077;50.872;4.352;2023-02-26T06:45:29;2.00;;;1.02;;
45342;SDS011;31077;50.872;4.352;2023-02-26T06:47:55;2.30;;;1.20;;
45342;SDS011;31077;50.872;4.352;2023-02-26T06:50:21;1.95;;;1.15;;
45342;SDS011;31077;50.872;4.352;2023-02-26T06:52:47;1.55;;;0.93;;
45342;SDS011;31077;50.872;4.352;2023-02-26T06:55:13;3.33;;;1.25;;
45342;SDS011;31077;50.872;4.352;2023-02-26T06:57:39;2.13;;;1.10;;
45342;SDS011;31077;50.872;4.352;2023-02-26T07:00:05;1.30;;;0.75;;
45342;SDS011;31077;50.872;4.352;2023-02-26T07:02:31;1.95;;;1.00;;
45342;SDS011;31077;50.872;4.352;2023-02-26T07:04:58;2.10;;;1.05;;
45342;SDS011;31077;50.872;4.352;2023-02-26T07:07:23;2.17;;;1.10;;
45342;SDS011;31077;50.872;4.352;2023-02-26T07:09:49;2.80;;;0.98;;
45342;SDS011;31077;50.872;4.352;2023-02-26T07:12:15;2.00;;;0.90;;
45342;SDS011;31077;50.872;4.352;2023-02-26T07:14:41;1.27;;;1.00;;
45342;SDS011;31077;50.872;4.352;2023-02-26T07:17:07;2.15;;;1.00;;
45342;SDS011;31077;50.872;4.352;2023-02-26T07:19:34;4.60;;;1.35;;
45342;SDS011;31077;50.872;4.352;2023-02-26T07:22:00;2.72;;;1.20;;
45342;SDS011;31077;50.872;4.352;2023-02-26T07:24:25;6.53;;;1.08;;
45342;SDS011;31077;50.872;4.352;2023-02-26T07:26:51;2.78;;;1.42;;
45342;SDS011;31077;50.872;4.352;2023-02-26T07:29:17;25.00;;;2.30;;
45342;SDS011;31077;50.872;4.352;2023-02-26T07:31:43;3.53;;;1.35;;
45342;SDS011;31077;50.872;4.352;2023-02-26T07:34:09;11.25;;;1.13;;
45342;SDS011;31077;50.872;4.352;2023-02-26T07:36:34;8.00;;;1.58;;
45342;SDS011;31077;50.872;4.352;2023-02-26T07:39:00;50.58;;;2.20;;
45342;SDS011;31077;50.872;4.352;2023-02-26T07:41:26;11.88;;;1.55;;
45342;SDS011;31077;50.872;4.352;2023-02-26T07:43:52;24.73;;;2.30;;
45342;SDS011;31077;50.872;4.352;2023-02-26T07:46:18;10.38;;;1.75;;
45342;SDS011;31077;50.872;4.352;2023-02-26T07:48:43;5.93;;;1.30;;
45342;SDS011;31077;50.872;4.352;2023-02-26T07:51:09;10.05;;;2.15;;
45342;SDS011;31077;50.872;4.352;2023-02-26T07:53:35;10.73;;;1.70;;
45342;SDS011;31077;50.872;4.352;2023-02-26T07:56:01;11.75;;;1.52;;
45342;SDS011;31077;50.872;4.352;2023-02-26T07:58:27;13.32;;;1.50;;
45342;SDS011;31077;50.872;4.352;2023-02-26T08:00:53;5.00;;;0.82;;
45342;SDS011;31077;50.872;4.352;2023-02-26T08:03:19;9.18;;;1.20;;
45342;SDS011;31077;50.872;4.352;2023-02-26T08:05:45;7.78;;;1.88;;
45342;SDS011;31077;50.872;4.352;2023-02-26T08:08:11;4.05;;;1.35;;
45342;SDS011;31077;50.872;4.352;2023-02-26T08:10:37;7.13;;;1.20;;
45342;SDS011;31077;50.872;4.352;2023-02-26T08:13:03;4.22;;;1.33;;
45342;SDS011;31077;50.872;4.352;2023-02-26T08:15:29;3.63;;;0.90;;
45342;SDS011;31077;50.872;4.352;2023-02-26T08:17:55;6.32;;;1.42;;
45342;SDS011;31077;50.872;4.352;2023-02-26T08:20:21;5.70;;;1.15;;
45342;SDS011;31077;50.872;4.352;2023-02-26T08:22:47;4.82;;;1.20;;
45342;SDS011;31077;50.872;4.352;2023-02-26T08:25:14;3.97;;;1.20;;
45342;SDS011;31077;50.872;4.352;2023-02-26T08:27:41;3.72;;;1.40;;
45342;SDS011;31077;50.872;4.352;2023-02-26T08:30:07;2.17;;;0.93;;
45342;SDS011;31077;50.872;4.352;2023-02-26T08:32:33;4.72;;;1.42;;
45342;SDS011;31077;50.872;4.352;2023-02-26T08:34:59;2.08;;;0.93;;
45342;SDS011;31077;50.872;4.352;2023-02-26T08:37:25;2.40;;;0.82;;
45342;SDS011;31077;50.872;4.352;2023-02-26T08:39:51;2.30;;;0.85;;
45342;SDS011;31077;50.872;4.352;2023-02-26T08:42:17;2.35;;;1.10;;
45342;SDS011;31077;50.872;4.352;2023-02-26T08:44:44;3.78;;;0.68;;
45342;SDS011;31077;50.872;4.352;2023-02-26T08:47:11;4.15;;;0.80;;
45342;SDS011;31077;50.872;4.352;2023-02-26T08:49:38;3.47;;;1.17;;
45342;SDS011;31077;50.872;4.352;2023-02-26T08:52:03;3.42;;;1.38;;
45342;SDS011;31077;50.872;4.352;2023-02-26T08:54:29;3.72;;;1.38;;
45342;SDS011;31077;50.872;4.352;2023-02-26T08:56:56;2.30;;;1.08;;
45342;SDS011;31077;50.872;4.352;2023-02-26T08:59:22;2.25;;;1.20;;
45342;SDS011;31077;50.872;4.352;2023-02-26T09:01:49;3.08;;;1.08;;
45342;SDS011;31077;50.872;4.352;2023-02-26T09:04:15;5.55;;;1.13;;
45342;SDS011;31077;50.872;4.352;2023-02-26T09:06:41;3.60;;;1.10;;
45342;SDS011;31077;50.872;4.352;2023-02-26T09:09:07;4.75;;;1.17;;
45342;SDS011;31077;50.872;4.352;2023-02-26T09:11:34;4.50;;;0.80;;
45342;SDS011;31077;50.872;4.352;2023-02-26T09:14:02;2.03;;;1.05;;
45342;SDS011;31077;50.872;4.352;2023-02-26T09:16:28;3.05;;;1.02;;
45342;SDS011;31077;50.872;4.352;2023-02-26T09:18:55;5.18;;;1.30;;
45342;SDS011;31077;50.872;4.352;2023-02-26T09:21:21;2.53;;;1.20;;
45342;SDS011;31077;50.872;4.352;2023-02-26T09:23:47;1.33;;;0.90;;
45342;SDS011;31077;50.872;4.352;2023-02-26T09:26:13;3.50;;;1.17;;
45342;SDS011;31077;50.872;4.352;2023-02-26T09:28:39;2.33;;;1.05;;
45342;SDS011;31077;50.872;4.352;2023-02-26T09:31:04;4.18;;;0.93;;
45342;SDS011;31077;50.872;4.352;2023-02-26T09:33:33;1.33;;;0.90;;
45342;SDS011;31077;50.872;4.352;2023-02-26T09:36:00;2.25;;;0.95;;
45342;SDS011;31077;50.872;4.352;2023-02-26T09:38:26;4.72;;;1.15;;
45342;SDS011;31077;50.872;4.352;2023-02-26T09:41:05;3.67;;;1.63;;
45342;SDS011;31077;50.872;4.352;2023-02-26T09:46:20;2.33;;;0.90;;
45342;SDS011;31077;50.872;4.352;2023-02-26T09:49:12;1.25;;;0.70;;
45342;SDS011;31077;50.872;4.352;2023-02-26T09:51:49;2.30;;;0.93;;
45342;SDS011;31077;50.872;4.352;2023-02-26T09:54:20;3.38;;;1.00;;
45342;SDS011;31077;50.872;4.352;2023-02-26T09:56:49;1.88;;;0.82;;
45342;SDS011;31077;50.872;4.352;2023-02-26T09:59:16;1.48;;;0.80;;
45342;SDS011;31077;50.872;4.352;2023-02-26T10:01:45;1.60;;;1.00;;
45342;SDS011;31077;50.872;4.352;2023-02-26T10:07:02;1.27;;;0.77;;
45342;SDS011;31077;50.872;4.352;2023-02-26T10:12:25;1.73;;;0.75;;
45342;SDS011;31077;50.872;4.352;2023-02-26T10:20:32;2.45;;;0.90;;
45342;SDS011;31077;50.872;4.352;2023-02-26T10:23:20;0.68;;;0.63;;
45342;SDS011;31077;50.872;4.352;2023-02-26T10:26:12;1.73;;;0.80;;
45342;SDS011;31077;50.872;4.352;2023-02-26T10:31:29;2.42;;;0.93;;
45342;SDS011;31077;50.872;4.352;2023-02-26T10:34:17;2.05;;;0.95;;
45342;SDS011;31077;50.872;4.352;2023-02-26T10:42:49;1.10;;;0.70;;
45342;SDS011;31077;50.872;4.352;2023-02-26T10:50:32;1.17;;;0.68;;
45342;SDS011;31077;50.872;4.352;2023-02-26T10:52:58;2.65;;;0.98;;
45342;SDS011;31077;50.872;4.352;2023-02-26T10:55:25;1.38;;;0.80;;
45342;SDS011;31077;50.872;4.352;2023-02-26T10:58:10;1.23;;;0.70;;
45342;SDS011;31077;50.872;4.352;2023-02-26T11:00:39;1.25;;;0.60;;
45342;SDS011;31077;50.872;4.352;2023-02-26T11:03:07;3.08;;;1.02;;
45342;SDS011;31077;50.872;4.352;2023-02-26T11:05:38;1.48;;;0.73;;
45342;SDS011;31077;50.872;4.352;2023-02-26T11:08:14;1.05;;;0.80;;
45342;SDS011;31077;50.872;4.352;2023-02-26T11:10:51;2.70;;;1.00;;
45342;SDS011;31077;50.872;4.352;2023-02-26T11:13:20;2.67;;;0.97;;
45342;SDS011;31077;50.872;4.352;2023-02-26T11:15:47;2.00;;;0.85;;
45342;SDS011;31077;50.872;4.352;2023-02-26T11:18:17;1.63;;;0.77;;
45342;SDS011;31077;50.872;4.352;2023-02-26T11:21:04;1.23;;;0.60;;
45342;SDS011;31077;50.872;4.352;2023-02-26T11:23:32;1.33;;;0.70;;
45342;SDS011;31077;50.872;4.352;2023-02-26T11:26:00;1.33;;;0.60;;
45342;SDS011;31077;50.872;4.352;2023-02-26T11:28:32;1.70;;;0.82;;
45342;SDS011;31077;50.872;4.352;2023-02-26T11:31:04;1.63;;;0.80;;
45342;SDS011;31077;50.872;4.352;2023-02-26T11:33:35;1.17;;;0.68;;
45342;SDS011;31077;50.872;4.352;2023-02-26T11:36:11;2.28;;;1.02;;
45342;SDS011;31077;50.872;4.352;2023-02-26T11:38:40;1.33;;;0.80;;
45342;SDS011;31077;50.872;4.352;2023-02-26T11:41:10;1.77;;;0.75;;
45342;SDS011;31077;50.872;4.352;2023-02-26T11:43:41;0.88;;;0.57;;
45342;SDS011;31077;50.872;4.352;2023-02-26T11:46:10;2.75;;;0.90;;
45342;SDS011;31077;50.872;4.352;2023-02-26T11:48:39;1.95;;;0.90;;
45342;SDS011;31077;50.872;4.352;2023-02-26T11:51:15;1.33;;;0.50;;
45342;SDS011;31077;50.872;4.352;2023-02-26T11:53:48;1.33;;;0.70;;
45342;SDS011;31077;50.872;4.352;2023-02-26T11:56:24;0.73;;;0.60;;
45342;SDS011;31077;50.872;4.352;2023-02-26T12:01:40;2.10;;;0.60;;
45342;SDS011;31077;50.872;4.352;2023-02-26T12:04:08;3.75;;;0.70;;
45342;SDS011;31077;50.872;4.352;2023-02-26T12:06:36;2.78;;;1.38;;
45342;SDS011;31077;50.872;4.352;2023-02-26T12:09:02;2.20;;;0.88;;
45342;SDS011;31077;50.872;4.352;2023-02-26T12:19:50;1.60;;;0.65;;
45342;SDS011;31077;50.872;4.352;2023-02-26T12:42:17;3.15;;;1.17;;
45342;SDS011;31077;50.872;4.352;2023-02-26T12:53:18;1.08;;;0.93;;
45342;SDS011;31077;50.872;4.352;2023-02-26T13:01:43;1.33;;;0.80;;
45342;SDS011;31077;50.872;4.352;2023-02-26T13:20:11;1.58;;;1.00;;
45342;SDS011;31077;50.872;4.352;2023-02-26T13:22:56;1.58;;;0.90;;
45342;SDS011;31077;50.872;4.352;2023-02-26T13:25:36;1.77;;;0.93;;
45342;SDS011;31077;50.872;4.352;2023-02-26T13:28:24;1.40;;;0.75;;
45342;SDS011;31077;50.872;4.352;2023-02-26T13:31:08;0.63;;;0.63;;
45342;SDS011;31077;50.872;4.352;2023-02-26T13:33:39;1.98;;;1.05;;
45342;SDS011;31077;50.872;4.352;2023-02-26T13:36:05;1.77;;;0.85;;
45342;SDS011;31077;50.872;4.352;2023-02-26T13:38:36;2.38;;;0.90;;
45342;SDS011;31077;50.872;4.352;2023-02-26T13:41:28;1.88;;;0.90;;
45342;SDS011;31077;50.872;4.352;2023-02-26T13:44:06;2.35;;;1.05;;
45342;SDS011;31077;50.872;4.352;2023-02-26T13:46:51;2.22;;;0.80;;
45342;SDS011;31077;50.872;4.352;2023-02-26T13:52:35;2.00;;;0.95;;
45342;SDS011;31077;50.872;4.352;2023-02-26T13:55:34;1.63;;;0.95;;
45342;SDS011;31077;50.872;4.352;2023-02-26T13:58:14;1.30;;;0.90;;
45342;SDS011;31077;50.872;4.352;2023-02-26T14:00:45;1.15;;;0.90;;
45342;SDS011;31077;50.872;4.352;2023-02-26T14:05:54;4.38;;;1.15;;
45342;SDS011;31077;50.872;4.352;2023-02-26T14:13:42;1.13;;;0.80;;
45342;SDS011;31077;50.872;4.352;2023-02-26T14:16:40;3.17;;;0.85;;
45342;SDS011;31077;50.872;4.352;2023-02-26T14:21:46;2.05;;;1.17;;
45342;SDS011;31077;50.872;4.352;2023-02-26T14:27:19;1.77;;;1.13;;
45342;SDS011;31077;50.872;4.352;2023-02-26T14:35:22;1.45;;;0.60;;
45342;SDS011;31077;50.872;4.352;2023-02-26T14:40:33;1.25;;;0.88;;
45342;SDS011;31077;50.872;4.352;2023-02-26T14:43:03;1.35;;;0.85;;
45342;SDS011;31077;50.872;4.352;2023-02-26T14:45:35;1.27;;;1.00;;
45342;SDS011;31077;50.872;4.352;2023-02-26T14:48:04;1.13;;;0.82;;
45342;SDS011;31077;50.872;4.352;2023-02-26T14:59:41;1.58;;;0.93;;
45342;SDS011;31077;50.872;4.352;2023-02-26T15:02:24;2.13;;;1.08;;
45342;SDS011;31077;50.872;4.352;2023-02-26T15:05:08;1.23;;;0.80;;
45342;SDS011;31077;50.872;4.352;2023-02-26T15:21:19;2.08;;;0.90;;
45342;SDS011;31077;50.872;4.352;2023-02-26T15:23:49;1.43;;;0.93;;
45342;SDS011;31077;50.872;4.352;2023-02-26T15:26:18;1.92;;;0.93;;
45342;SDS011;31077;50.872;4.352;2023-02-26T15:28:47;1.20;;;0.70;;
45342;SDS011;31077;50.872;4.352;2023-02-26T15:31:14;1.52;;;1.10;;
45342;SDS011;31077;50.872;4.352;2023-02-26T15:33:43;1.80;;;0.90;;
45342;SDS011;31077;50.872;4.352;2023-02-26T15:36:12;1.73;;;0.70;;
45342;SDS011;31077;50.872;4.352;2023-02-26T15:38:45;3.70;;;1.10;;
45342;SDS011;31077;50.872;4.352;2023-02-26T15:41:13;1.38;;;0.73;;
45342;SDS011;31077;50.872;4.352;2023-02-26T15:43:40;2.00;;;1.02;;
45342;SDS011;31077;50.872;4.352;2023-02-26T15:46:12;1.13;;;1.02;;
45342;SDS011;31077;50.872;4.352;2023-02-26T15:48:39;1.67;;;0.75;;
45342;SDS011;31077;50.872;4.352;2023-02-26T15:51:07;1.52;;;0.85;;
45342;SDS011;31077;50.872;4.352;2023-02-26T15:56:17;3.40;;;0.75;;
45342;SDS011;31077;50.872;4.352;2023-02-26T16:01:28;3.13;;;0.93;;
45342;SDS011;31077;50.872;4.352;2023-02-26T16:04:04;1.40;;;0.80;;
45342;SDS011;31077;50.872;4.352;2023-02-26T16:06:34;1.55;;;0.77;;
45342;SDS011;31077;50.872;4.352;2023-02-26T16:09:03;1.52;;;0.90;;
45342;SDS011;31077;50.872;4.352;2023-02-26T16:11:31;2.67;;;0.80;;
45342;SDS011;31077;50.872;4.352;2023-02-26T16:14:01;1.77;;;0.80;;
45342;SDS011;31077;50.872;4.352;2023-02-26T16:16:33;1.40;;;1.00;;
45342;SDS011;31077;50.872;4.352;2023-02-26T16:19:02;2.15;;;1.10;;
45342;SDS011;31077;50.872;4.352;2023-02-26T16:21:35;1.90;;;0.82;;
45342;SDS011;31077;50.872;4.352;2023-02-26T16:24:04;1.30;;;0.80;;
45342;SDS011;31077;50.872;4.352;2023-02-26T16:26:33;1.02;;;0.80;;
45342;SDS011;31077;50.872;4.352;2023-02-26T16:29:13;0.70;;;0.70;;
45342;SDS011;31077;50.872;4.352;2023-02-26T16:31:46;1.25;;;0.68;;
45342;SDS011;31077;50.872;4.352;2023-02-26T16:36:54;1.67;;;0.88;;
45342;SDS011;31077;50.872;4.352;2023-02-26T16:39:25;2.03;;;1.00;;
45342;SDS011;31077;50.872;4.352;2023-02-26T16:42:18;1.25;;;0.80;;
45342;SDS011;31077;50.872;4.352;2023-02-26T16:47:40;2.20;;;1.10;;
45342;SDS011;31077;50.872;4.352;2023-02-26T16:50:13;1.52;;;0.93;;
45342;SDS011;31077;50.872;4.352;2023-02-26T16:52:45;1.90;;;1.10;;
45342;SDS011;31077;50.872;4.352;2023-02-26T16:55:16;1.17;;;0.98;;
45342;SDS011;31077;50.872;4.352;2023-02-26T16:57:42;1.40;;;0.90;;
45342;SDS011;31077;50.872;4.352;2023-02-26T17:00:14;1.17;;;0.70;;
45342;SDS011;31077;50.872;4.352;2023-02-26T17:02:54;3.67;;;1.00;;
45342;SDS011;31077;50.872;4.352;2023-02-26T17:05:43;1.48;;;0.90;;
45342;SDS011;31077;50.872;4.352;2023-02-26T17:08:31;1.42;;;1.05;;
45342;SDS011;31077;50.872;4.352;2023-02-26T17:11:29;1.65;;;0.93;;
45342;SDS011;31077;50.872;4.352;2023-02-26T17:16:49;1.20;;;1.10;;
45342;SDS011;31077;50.872;4.352;2023-02-26T17:19:16;1.85;;;1.00;;
45342;SDS011;31077;50.872;4.352;2023-02-26T17:21:44;1.52;;;0.98;;
45342;SDS011;31077;50.872;4.352;2023-02-26T17:24:17;1.52;;;0.85;;
45342;SDS011;31077;50.872;4.352;2023-02-26T17:26:56;0.93;;;0.70;;
45342;SDS011;31077;50.872;4.352;2023-02-26T17:29:28;2.17;;;1.10;;
45342;SDS011;31077;50.872;4.352;2023-02-26T17:32:01;1.25;;;0.95;;
45342;SDS011;31077;50.872;4.352;2023-02-26T17:34:31;3.25;;;1.20;;
45342;SDS011;31077;50.872;4.352;2023-02-26T17:36:57;1.48;;;0.98;;
45342;SDS011;31077;50.872;4.352;2023-02-26T17:39:23;1.15;;;0.90;;
45342;SDS011;31077;50.872;4.352;2023-02-26T17:41:50;1.35;;;1.05;;
45342;SDS011;31077;50.872;4.352;2023-02-26T17:44:16;2.47;;;1.00;;
45342;SDS011;31077;50.872;4.352;2023-02-26T17:46:41;1.60;;;0.93;;
45342;SDS011;31077;50.872;4.352;2023-02-26T17:49:09;2.25;;;1.25;;
45342;SDS011;31077;50.872;4.352;2023-02-26T17:51:36;3.30;;;1.02;;
45342;SDS011;31077;50.872;4.352;2023-02-26T17:54:02;3.00;;;1.00;;
45342;SDS011;31077;50.872;4.352;2023-02-26T17:56:30;2.63;;;1.20;;
45342;SDS011;31077;50.872;4.352;2023-02-26T17:58:58;1.67;;;1.15;;
45342;SDS011;31077;50.872;4.352;2023-02-26T18:01:25;2.30;;;1.20;;
45342;SDS011;31077;50.872;4.352;2023-02-26T18:03:54;1.48;;;1.25;;
45342;SDS011;31077;50.872;4.352;2023-02-26T18:06:20;4.53;;;1.23;;
45342;SDS011;31077;50.872;4.352;2023-02-26T18:08:47;2.78;;;1.20;;
45342;SDS011;31077;50.872;4.352;2023-02-26T18:11:14;1.98;;;1.17;;
45342;SDS011;31077;50.872;4.352;2023-02-26T18:13:41;1.90;;;1.30;;
45342;SDS011;31077;50.872;4.352;2023-02-26T18:16:27;3.10;;;1.40;;
45342;SDS011;31077;50.872;4.352;2023-02-26T18:18:57;1.95;;;1.17;;
45342;SDS011;31077;50.872;4.352;2023-02-26T18:21:23;2.22;;;1.48;;
45342;SDS011;31077;50.872;4.352;2023-02-26T18:23:52;1.45;;;1.20;;
45342;SDS011;31077;50.872;4.352;2023-02-26T18:26:20;3.03;;;1.42;;
45342;SDS011;31077;50.872;4.352;2023-02-26T18:28:48;1.50;;;1.17;;
45342;SDS011;31077;50.872;4.352;2023-02-26T18:31:15;2.40;;;1.20;;
45342;SDS011;31077;50.872;4.352;2023-02-26T18:33:42;2.47;;;1.40;;
45342;SDS011;31077;50.872;4.352;2023-02-26T18:36:12;2.30;;;1.33;;